Time;durP1;ratioP1;P1;durP2;ratioP2;P2;SDS_P1;SDS_P2;PMS_P1;PMS_P2;Temp;Humidity;BMP_temperature;BMP_pressure;BME280_temperature;BME280_humidity;BME280_pressure;Samples;Min_cycle;Max_cycle;Signal;HPM_P1;HPM_P2
2023/10/31 00:00:05;;;;;;;1999.90;999.90;;;;;;;10.21;83.32;96653.28;5158236;27;20504;-63
2023/10/31 00:02:33;;;;;;;1999.90;999.90;;;;;;;10.21;83.02;96655.06;5158156;27;20057;-63
2023/10/31 00:05:02;;;;;;;1999.90;999.90;;;;;;;10.21;82.53;96644.59;5158065;27;20046;-63
2023/10/31 00:07:29;;;;;;;1999.90;999.90;;;;;;;10.13;82.31;96639.63;5158041;27;20503;-63
2023/10/31 00:09:58;;;;;;;1999.90;999.90;;;;;;;10.13;82.27;96649.22;5157984;27;20043;-63
2023/10/31 00:12:25;;;;;;;1999.90;999.90;;;;;;;10.09;81.71;96643.25;5157938;27;20552;-63
2023/10/31 00:14:52;;;;;;;1999.90;999.90;;;;;;;10.04;82.28;96639.94;5157969;27;20151;-63
2023/10/31 00:17:19;;;;;;;1999.90;999.90;;;;;;;9.98;82.59;96641.00;5157951;27;20093;-63
2023/10/31 00:19:47;;;;;;;1999.90;999.90;;;;;;;10.02;82.69;96631.31;5158001;27;20050;-63
2023/10/31 00:22:15;;;;;;;1999.90;999.90;;;;;;;10.04;81.89;96635.56;5157703;27;20050;-63
2023/10/31 00:24:42;;;;;;;1999.90;999.90;;;;;;;10.05;81.02;96639.88;5157612;27;20042;-63
2023/10/31 00:27:11;;;;;;;1999.90;999.90;;;;;;;10.06;80.54;96627.69;5157820;27;20046;-63
2023/10/31 00:29:38;;;;;;;1999.90;999.90;;;;;;;10.06;80.57;96627.69;5157704;27;20501;-63
2023/10/31 00:32:06;;;;;;;1999.90;999.90;;;;;;;10.02;80.52;96620.84;5157461;27;20038;-63
2023/10/31 00:34:33;;;;;;;1999.90;999.90;;;;;;;10.02;79.94;96632.16;5157404;27;20103;-63
2023/10/31 00:37:01;;;;;;;1999.90;999.90;;;;;;;9.99;80.52;96629.63;5157512;27;20050;-63
2023/10/31 00:39:28;;;;;;;1999.90;999.90;;;;;;;9.82;81.18;96625.00;5157242;27;20047;-63
2023/10/31 00:41:56;;;;;;;1999.90;999.90;;;;;;;9.81;81.63;96611.06;5157292;27;20046;-63
2023/10/31 00:44:26;;;;;;;1999.90;999.90;;;;;;;9.83;81.13;96611.00;5157409;27;20443;-63
2023/10/31 00:46:53;;;;;;;1999.90;999.90;;;;;;;9.81;81.50;96611.06;5157388;27;20064;-63
2023/10/31 00:49:20;;;;;;;1999.90;999.90;;;;;;;9.77;81.51;96600.78;5157217;27;20061;-63
2023/10/31 00:51:48;;;;;;;1999.90;999.90;;;;;;;9.78;81.38;96598.09;5157137;27;20047;-63
2023/10/31 00:54:15;;;;;;;1999.90;999.90;;;;;;;9.76;81.57;96604.28;5157151;27;20400;-63
2023/10/31 00:56:42;;;;;;;1999.90;999.90;;;;;;;9.76;80.63;96601.69;5157204;27;20445;-63
2023/10/31 00:59:09;;;;;;;1999.90;999.90;;;;;;;9.75;80.74;96597.38;5156956;27;20047;-63
2023/10/31 01:01:39;;;;;;;1999.90;999.90;;;;;;;9.74;80.86;96601.75;5156903;27;20042;-63
2023/10/31 01:04:06;;;;;;;1999.90;999.90;;;;;;;9.71;81.81;96597.47;5156904;27;20099;-63
2023/10/31 01:06:34;;;;;;;1999.90;999.90;;;;;;;9.67;82.41;96585.44;5156890;27;20087;-63
2023/10/31 01:09:01;;;;;;;1999.90;999.90;;;;;;;9.65;82.51;96588.97;5156844;27;20055;-63
2023/10/31 01:11:29;;;;;;;1999.90;999.90;;;;;;;9.64;82.91;96587.28;5156763;27;20441;-63
2023/10/31 01:13:56;;;;;;;1999.90;999.90;;;;;;;9.58;83.00;96586.56;5156616;27;20043;-63
2023/10/31 01:16:23;;;;;;;1999.90;999.90;;;;;;;9.56;82.66;96582.31;5156776;27;20411;-63
2023/10/31 01:18:52;;;;;;;1999.90;999.90;;;;;;;9.58;83.03;96575.28;5156618;27;20043;-64
2023/10/31 01:21:19;;;;;;;1999.90;999.90;;;;;;;9.60;82.80;96581.28;5156554;27;20043;-63
2023/10/31 01:23:46;;;;;;;1999.90;999.90;;;;;;;9.58;82.76;96580.50;5156470;27;20053;-63
2023/10/31 01:26:14;;;;;;;1999.90;999.90;;;;;;;9.59;82.60;96583.06;5156447;27;20403;-63
2023/10/31 01:28:41;;;;;;;1999.90;999.90;;;;;;;9.57;82.37;96592.69;5156486;27;20050;-63
2023/10/31 01:31:11;;;;;;;1999.90;999.90;;;;;;;9.56;82.36;96584.91;5156420;27;20076;-63
2023/10/31 01:33:38;;;;;;;1999.90;999.90;;;;;;;9.55;81.88;96580.59;5156351;27;20043;-63
2023/10/31 01:36:10;;;;;;;1999.90;999.90;;;;;;;9.56;82.04;96577.94;5156276;27;20522;-62
2023/10/31 01:38:37;;;;;;;1999.90;999.90;;;;;;;9.57;81.12;96573.59;5156094;27;20130;-63
2023/10/31 01:41:05;;;;;;;1999.90;999.90;;;;;;;9.53;81.33;96577.19;5155636;27;20050;-62
2023/10/31 01:43:33;;;;;;;1999.90;999.90;;;;;;;9.52;81.97;96575.47;5156021;27;20464;-62
2023/10/31 01:46:00;;;;;;;1999.90;999.90;;;;;;;9.48;81.97;96574.72;5156089;27;20172;-62
2023/10/31 01:48:32;;;;;;;1999.90;999.90;;;;;;;9.41;82.68;96570.59;5156150;27;20062;-63
2023/10/31 01:51:00;;;;;;;1999.90;999.90;;;;;;;9.41;82.70;96568.00;5156076;27;20068;-63
2023/10/31 01:53:32;;;;;;;1999.90;999.90;;;;;;;9.43;82.83;96567.06;5156063;27;20468;-63
2023/10/31 01:56:01;;;;;;;1999.90;999.90;;;;;;;9.45;82.80;96572.25;5155875;27;20047;-63
2023/10/31 01:58:31;;;;;;;1999.90;999.90;;;;;;;9.43;82.69;96568.81;5155833;27;20043;-63
2023/10/31 02:01:00;;;;;;;1999.90;999.90;;;;;;;9.37;83.73;96571.63;5155816;27;20073;-63
2023/10/31 02:03:27;;;;;;;1999.90;999.90;;;;;;;9.30;83.87;96569.19;5155678;27;20133;-63
2023/10/31 02:05:55;;;;;;;1999.90;999.90;;;;;;;9.34;84.26;96567.34;5155811;27;20078;-63
2023/10/31 02:08:23;;;;;;;1999.90;999.90;;;;;;;9.30;83.37;96563.16;5155587;27;20476;-63
2023/10/31 02:10:53;;;;;;;1999.90;999.90;;;;;;;9.28;83.26;96562.34;5155698;27;20462;-63
2023/10/31 02:13:20;;;;;;;1999.90;999.90;;;;;;;9.27;84.16;96566.69;5155567;27;20047;-63
2023/10/31 02:15:47;;;;;;;1999.90;999.90;;;;;;;9.27;84.21;96564.06;5155489;27;20059;-63
2023/10/31 02:18:15;;;;;;;1999.90;999.90;;;;;;;9.28;83.85;96565.81;5155467;27;20091;-63
2023/10/31 02:20:43;;;;;;;1999.90;999.90;;;;;;;9.30;83.13;96571.81;5155527;27;20046;-63
2023/10/31 02:23:13;;;;;;;1999.90;999.90;;;;;;;9.32;82.53;96564.78;5155349;27;20133;-63
2023/10/31 02:25:40;;;;;;;1999.90;999.90;;;;;;;9.30;82.70;96569.19;5155391;27;20042;-62
2023/10/31 02:28:07;;;;;;;1999.90;999.90;;;;;;;9.24;83.19;96564.19;5155263;27;20051;-63
2023/10/31 02:30:37;;;;;;;1999.90;999.90;;;;;;;9.16;84.02;96564.44;5155310;27;20072;-63
2023/10/31 02:33:04;;;;;;;1999.90;999.90;;;;;;;9.11;84.46;96563.72;5155171;27;20042;-63
2023/10/31 02:35:31;;;;;;;1999.90;999.90;;;;;;;9.12;84.66;96568.03;5155171;27;20078;-62
2023/10/31 02:37:58;;;;;;;1999.90;999.90;;;;;;;9.13;84.39;96568.91;5155174;27;20042;-63
2023/10/31 02:40:27;;;;;;;1999.90;999.90;;;;;;;9.10;83.89;96567.25;5154881;27;20496;-63
2023/10/31 02:42:55;;;;;;;1999.90;999.90;;;;;;;9.07;84.43;96565.59;5155015;27;20139;-62
2023/10/31 02:45:22;;;;;;;1999.90;999.90;;;;;;;9.08;84.07;96571.66;5155008;27;20047;-63
2023/10/31 02:47:49;;;;;;;1999.90;999.90;;;;;;;9.03;83.44;96558.75;5154997;27;20130;-62
2023/10/31 02:50:16;;;;;;;1999.90;999.90;;;;;;;9.03;83.28;96565.72;5154881;27;20106;-63
2023/10/31 02:52:43;;;;;;;1999.90;999.90;;;;;;;8.97;82.41;96575.44;5154037;27;20141;-63
2023/10/31 02:55:10;;;;;;;1999.90;999.90;;;;;;;8.82;83.16;96565.50;5154859;27;20487;-62
2023/10/31 02:57:39;;;;;;;1999.90;999.90;;;;;;;8.82;84.11;96562.88;5154957;27;20096;-62
2023/10/31 03:00:09;;;;;;;1999.90;999.90;;;;;;;8.82;84.19;96565.50;5154794;27;20082;-63
2023/10/31 03:02:36;;;;;;;1999.90;999.90;;;;;;;8.82;84.11;96566.34;5154799;27;20065;-63
2023/10/31 03:05:04;;;;;;;1999.90;999.90;;;;;;;8.82;83.81;96568.09;5154530;27;20099;-63
2023/10/31 03:07:31;;;;;;;1999.90;999.90;;;;;;;8.73;83.88;96566.59;5154801;27;20049;-62
2023/10/31 03:09:58;;;;;;;1999.90;999.90;;;;;;;8.67;84.14;96561.59;5154728;27;20050;-63
2023/10/31 03:12:25;;;;;;;1999.90;999.90;;;;;;;8.73;85.44;96569.22;5154839;27;20078;-62
2023/10/31 03:14:54;;;;;;;1999.90;999.90;;;;;;;8.76;85.06;96565.69;5154614;27;20045;-62
2023/10/31 03:17:22;;;;;;;1999.90;999.90;;;;;;;8.78;84.24;96559.50;5154651;27;20492;-62
2023/10/31 03:19:49;;;;;;;1999.90;999.90;;;;;;;8.80;83.63;96562.06;5154721;27;20043;-63
2023/10/31 03:22:16;;;;;;;1999.90;999.90;;;;;;;8.78;83.09;96556.91;5154457;27;20047;-63
2023/10/31 03:24:43;;;;;;;1999.90;999.90;;;;;;;8.81;81.74;96558.56;5154588;27;20138;-62
2023/10/31 03:27:10;;;;;;;1999.90;999.90;;;;;;;8.79;81.56;96550.78;5154650;27;20097;-63
2023/10/31 03:29:37;;;;;;;1999.90;999.90;;;;;;;8.78;81.95;96543.84;5154448;27;20141;-63
2023/10/31 03:32:06;;;;;;;1999.90;999.90;;;;;;;8.76;82.21;96545.66;5154570;27;20095;-62
2023/10/31 03:34:33;;;;;;;1999.90;999.90;;;;;;;8.67;82.59;96545.94;5154572;27;20138;-63
2023/10/31 03:37:00;;;;;;;1999.90;999.90;;;;;;;8.59;83.83;96551.41;5154576;27;20436;-62
2023/10/31 03:39:27;;;;;;;1999.90;999.90;;;;;;;8.59;84.99;96549.66;5154327;27;20500;-63
2023/10/31 03:41:55;;;;;;;1999.90;999.90;;;;;;;8.57;85.35;96545.34;5154395;27;20058;-63
2023/10/31 03:44:25;;;;;;;1999.90;999.90;;;;;;;8.59;84.43;96544.44;5154225;27;20058;-63
2023/10/31 03:46:53;;;;;;;1999.90;999.90;;;;;;;8.57;84.52;96543.63;5154242;27;20047;-62
2023/10/31 03:49:23;;;;;;;1999.90;999.90;;;;;;;8.51;84.52;96543.75;5154311;27;20053;-63
2023/10/31 03:51:53;;;;;;;1999.90;999.90;;;;;;;8.54;84.10;96535.03;5154357;27;20043;-62
2023/10/31 03:54:21;;;;;;;1999.90;999.90;;;;;;;8.54;84.85;96533.28;5154327;27;20140;-63
2023/10/31 03:56:50;;;;;;;1999.90;999.90;;;;;;;8.57;84.92;96542.75;5154163;27;20043;-62
2023/10/31 03:59:19;;;;;;;1999.90;999.90;;;;;;;8.45;84.77;96536.13;5154245;27;20051;-63
2023/10/31 04:01:48;;;;;;;1999.90;999.90;;;;;;;8.45;84.77;96529.16;5154167;27;20461;-62
2023/10/31 04:04:16;;;;;;;1999.90;999.90;;;;;;;8.47;84.12;96535.19;5155923;27;20050;-63
2023/10/31 04:06:47;;;;;;;1999.90;999.90;;;;;;;8.42;84.31;96533.59;5158185;27;20054;-63
2023/10/31 04:09:15;;;;;;;;;;;;;;;8.45;83.99;96531.75;5158415;27;20126;-63
2023/10/31 04:11:43;;;;;;;1999.90;999.90;;;;;;;8.44;83.62;96531.81;5157895;27;19923;-62
2023/10/31 04:14:10;;;;;;;1999.90;999.90;;;;;;;8.43;84.48;96535.31;5157931;27;20089;-63
2023/10/31 04:16:45;;;;;;;1999.90;999.90;;;;;;;8.43;85.21;96532.72;5157770;27;20051;-63
2023/10/31 04:19:14;;;;;;;1999.90;999.90;;;;;;;8.47;84.82;96534.31;5157745;27;20043;-62
2023/10/31 04:21:45;;;;;;;1999.90;999.90;;;;;;;8.47;84.93;96527.38;5157704;27;20046;-63
2023/10/31 04:24:13;;;;;;;1999.90;999.90;;;;;;;8.47;85.19;96529.97;5157634;27;20453;-62
2023/10/31 04:26:43;;;;;;;1999.90;999.90;;;;;;;8.49;85.37;96529.06;5157635;27;20051;-62
2023/10/31 04:29:12;;;;;;;1999.90;999.90;;;;;;;8.45;85.44;96530.91;5157656;27;20058;-62
2023/10/31 04:31:41;;;;;;;1999.90;999.90;;;;;;;8.43;86.44;96528.34;5157468;27;20126;-63
2023/10/31 04:34:10;;;;;;;1999.90;999.90;;;;;;;8.47;86.20;96540.41;5157382;27;20405;-63
2023/10/31 04:36:38;;;;;;;1999.90;999.90;;;;;;;8.42;86.07;96544.88;5157551;27;20050;-63
2023/10/31 04:39:09;;;;;;;1999.90;999.90;;;;;;;8.38;86.28;96538.06;5157188;27;20050;-63
2023/10/31 04:41:36;;;;;;;;;;;;;;;8.38;86.39;96550.22;5157848;27;20046;-63
2023/10/31 04:44:06;;;;;;;1999.90;999.90;;;;;;;8.31;85.46;96537.38;5157212;27;19919;-63
2023/10/31 04:46:34;;;;;;;1999.90;999.90;;;;;;;8.33;86.34;96548.63;5157318;27;20498;-64
2023/10/31 04:49:03;;;;;;;1999.90;999.90;;;;;;;8.38;86.63;96540.66;5157156;27;20525;-63
2023/10/31 04:51:36;;;;;;;1999.90;999.90;;;;;;;8.37;86.03;96540.72;5157189;27;20050;-63
2023/10/31 04:54:05;;;;;;;1999.90;999.90;;;;;;;8.37;86.45;96546.75;5157043;27;20051;-63
2023/10/31 04:56:36;;;;;;;1999.90;999.90;;;;;;;8.39;85.75;96542.38;5157056;27;20045;-63
2023/10/31 04:59:06;;;;;;;1999.90;999.90;;;;;;;8.31;85.91;96553.00;5156987;27;20076;-62
2023/10/31 05:01:35;;;;;;;1999.90;999.90;;;;;;;8.37;85.78;96558.97;5156983;27;20488;-63
2023/10/31 05:04:04;;;;;;;1999.90;999.90;;;;;;;8.37;84.81;96551.13;5156899;27;20399;-63
2023/10/31 05:06:32;;;;;;;1999.90;999.90;;;;;;;8.39;84.51;96557.16;5156798;27;20053;-62
2023/10/31 05:09:01;;;;;;;1999.90;999.90;;;;;;;8.39;85.38;96552.78;5156860;27;20400;-62
2023/10/31 05:11:31;;;;;;;1999.90;999.90;;;;;;;8.41;86.07;96547.53;5156763;27;20049;-63
2023/10/31 05:14:01;;;;;;;1999.90;999.90;;;;;;;8.41;86.30;96539.72;5156743;27;20043;-63
2023/10/31 05:16:30;;;;;;;1999.90;999.90;;;;;;;8.44;86.30;96544.84;5155689;27;20089;-62
2023/10/31 05:19:04;;;;;;;1999.90;999.90;;;;;;;8.47;85.75;96539.53;5156495;27;20047;-62
2023/10/31 05:21:36;;;;;;;1999.90;999.90;;;;;;;8.53;85.36;96543.72;5156798;27;20050;-63
2023/10/31 05:24:07;;;;;;;1999.90;999.90;;;;;;;8.55;85.04;96545.41;5156465;27;20050;-63
2023/10/31 05:26:38;;;;;;;1999.90;999.90;;;;;;;8.60;85.29;96542.66;5156568;27;20049;-63
2023/10/31 05:29:13;;;;;;;1999.90;999.90;;;;;;;8.82;87.21;96553.28;5156474;27;20086;-63
2023/10/31 05:31:43;;;;;;;1999.90;999.90;;;;;;;9.76;85.47;96544.22;5156442;27;20488;-62
2023/10/31 05:34:13;;;;;;;1999.90;999.90;;;;;;;11.13;78.16;96557.50;5156346;27;20050;-63
2023/10/31 05:36:42;;;;;;;1999.90;999.90;;;;;;;12.50;70.52;96561.41;5156266;27;20038;-64
2023/10/31 05:39:11;;;;;;;1999.90;999.90;;;;;;;13.91;66.15;96550.38;5156139;27;20095;-64
2023/10/31 05:41:40;;;;;;;1999.90;999.90;;;;;;;15.29;59.91;96570.25;5156176;27;20038;-64
2023/10/31 05:44:10;;;;;;;1999.90;999.90;;;;;;;16.47;57.34;96561.69;5156156;27;20479;-64
2023/10/31 05:46:41;;;;;;;1999.90;999.90;;;;;;;17.62;52.85;96569.47;5156020;27;20091;-64
2023/10/31 05:49:10;;;;;;;1999.90;999.90;;;;;;;18.61;49.56;96571.69;5156090;27;20103;-64
2023/10/31 05:51:38;;;;;;;1999.90;999.90;;;;;;;19.49;48.66;96575.19;5155954;27;20051;-63
2023/10/31 05:54:09;;;;;;;1999.90;999.90;;;;;;;20.56;46.80;96571.59;5155845;27;20038;-63
2023/10/31 05:56:38;;;;;;;1999.90;999.90;;;;;;;21.56;43.14;96574.41;5155949;27;20411;-64
2023/10/31 05:59:09;;;;;;;1999.90;999.90;;;;;;;22.50;41.25;96574.63;5155734;27;20038;-62
2023/10/31 06:01:38;;;;;;;1999.90;999.90;;;;;;;23.37;39.65;96568.94;5155730;27;20050;-63
2023/10/31 06:04:07;;;;;;;1999.90;999.90;;;;;;;24.13;37.88;96574.56;5155675;27;20073;-62
2023/10/31 06:06:40;;;;;;;1999.90;999.90;;;;;;;24.90;36.60;96578.16;5155784;27;20129;-62
2023/10/31 06:09:10;;;;;;;1999.90;999.90;;;;;;;25.64;34.66;96580.84;5155576;27;20051;-64
2023/10/31 06:11:42;;;;;;;1999.90;999.90;;;;;;;26.27;33.71;96577.34;5155615;27;20126;-64
2023/10/31 06:14:12;;;;;;;1999.90;999.90;;;;;;;26.82;32.97;96575.34;5155511;27;20131;-62
2023/10/31 06:16:44;;;;;;;61.88;57.83;;;;;;;27.33;32.35;96575.38;5155440;27;20086;-64
2023/10/31 06:19:14;;;;;;;60.88;56.78;;;;;;;27.72;32.18;96573.16;5155426;27;20128;-64
2023/10/31 06:21:43;;;;;;;58.73;55.13;;;;;;;28.36;31.17;96574.34;5155489;27;20043;-65
2023/10/31 06:24:12;;;;;;;58.60;55.05;;;;;;;28.95;29.84;96575.88;5155337;27;20046;-64
2023/10/31 06:26:41;;;;;;;70.80;66.38;;;;;;;29.52;29.53;96579.28;5155216;27;20051;-64
2023/10/31 06:29:12;;;;;;;66.97;62.90;;;;;;;29.97;28.59;96570.59;5155120;27;20042;-62
2023/10/31 06:31:41;;;;;;;62.22;58.45;;;;;;;30.46;28.60;96568.47;5155251;27;20047;-63
2023/10/31 06:34:09;;;;;;;57.28;53.78;;;;;;;30.95;27.04;96573.53;5155191;27;20123;-62
2023/10/31 06:36:39;;;;;;;55.30;51.80;;;;;;;31.44;26.47;96568.53;5155176;27;20406;-64
2023/10/31 06:39:09;;;;;;;56.85;52.75;;;;;;;31.88;26.47;96572.13;5154846;27;20474;-65
2023/10/31 06:41:37;;;;;;;54.22;50.70;;;;;;;32.28;25.80;96567.09;5155010;27;20052;-64
2023/10/31 06:44:07;;;;;;;50.88;47.45;;;;;;;32.64;25.42;96561.72;5154850;27;20050;-64
2023/10/31 06:46:38;;;;;;;45.42;42.55;;;;;;;33.06;24.94;96560.91;5154945;27;20131;-64
2023/10/31 06:49:07;;;;;;;45.03;42.03;;;;;;;33.45;24.54;96559.41;5155010;27;20046;-64
2023/10/31 06:51:35;;;;;;;41.38;38.58;;;;;;;33.82;24.53;96560.94;5154779;27;20047;-62
2023/10/31 06:54:05;;;;;;;40.35;37.53;;;;;;;33.97;24.08;96561.59;5154832;27;20052;-65
2023/10/31 06:56:35;;;;;;;38.92;36.05;;;;;;;33.85;24.42;96558.66;5154773;27;20129;-64
2023/10/31 06:59:05;;;;;;;33.10;30.83;;;;;;;33.93;24.08;96570.34;5154848;27;20047;-65
2023/10/31 07:01:33;;;;;;;33.45;30.92;;;;;;;34.20;23.13;96568.53;5154829;27;20055;-64
2023/10/31 07:04:02;;;;;;;27.27;25.38;;;;;;;34.32;22.94;96574.16;5154859;27;20051;-64
2023/10/31 07:06:29;;;;;;;30.25;27.95;;;;;;;34.28;22.91;96571.00;5154818;27;20484;-63
2023/10/31 07:08:57;;;;;;;27.45;25.55;;;;;;;34.45;22.88;96569.72;5155004;27;20043;-64
2023/10/31 07:11:24;;;;;;;30.50;27.98;;;;;;;34.78;22.32;96579.72;5154934;27;20404;-64
2023/10/31 07:13:51;;;;;;;27.15;24.73;;;;;;;35.06;22.39;96566.91;5154862;27;20051;-65
2023/10/31 07:16:19;;;;;;;26.40;24.08;;;;;;;35.20;22.23;96576.72;5154779;27;20047;-65
2023/10/31 07:18:47;;;;;;;29.33;26.73;;;;;;;35.27;22.21;96571.22;5154551;27;20072;-63
2023/10/31 07:21:15;;;;;;;30.20;27.77;;;;;;;35.28;22.20;96581.88;5154620;27;20042;-62
2023/10/31 07:23:44;;;;;;;28.00;25.77;;;;;;;35.40;22.23;96579.31;5154526;27;20038;-64
2023/10/31 07:26:11;;;;;;;30.50;28.13;;;;;;;35.07;22.53;96568.59;5154689;27;20042;-62
2023/10/31 07:28:39;;;;;;;28.88;26.50;;;;;;;35.07;22.52;96572.13;5154594;27;20050;-64
2023/10/31 07:31:08;;;;;;;33.15;30.75;;;;;;;34.90;22.46;96572.63;5154530;27;20047;-63
2023/10/31 07:33:37;;;;;;;33.05;30.17;;;;;;;35.29;22.36;96571.84;5154486;27;20079;-63
2023/10/31 07:36:07;;;;;;;33.00;29.90;;;;;;;35.53;22.58;96578.44;5154432;27;20046;-63
2023/10/31 07:38:37;;;;;;;31.60;29.08;;;;;;;35.61;22.94;96574.63;5155108;27;20689;-65
2023/10/31 07:41:06;;;;;;;32.30;29.73;;;;;;;36.00;22.64;96566.44;5158575;27;20096;-65
2023/10/31 07:43:36;;;;;;;30.43;27.87;;;;;;;36.16;22.65;96567.78;5158457;27;20043;-63
2023/10/31 07:46:04;;;;;;;28.55;26.17;;;;;;;35.95;22.42;96576.31;5158629;27;20123;-64
2023/10/31 07:48:32;;;;;;;29.15;26.55;;;;;;;35.21;23.15;96570.22;5158312;27;20043;-63
2023/10/31 07:50:59;;;;;;;30.88;28.17;;;;;;;35.13;23.71;96565.00;5158431;27;20480;-62
2023/10/31 07:53:27;;;;;;;32.17;29.52;;;;;;;34.90;24.09;96560.91;5158542;27;20095;-64
2023/10/31 07:55:55;;;;;;;30.17;27.88;;;;;;;34.42;24.91;96557.44;5158487;27;20046;-65
2023/10/31 07:58:22;;;;;;;27.52;25.13;;;;;;;33.56;25.65;96554.41;5158260;27;20507;-63
2023/10/31 08:00:49;;;;;;;28.73;26.05;;;;;;;32.76;26.82;96559.28;5158224;27;20119;-63
2023/10/31 08:03:17;;;;;;;32.00;29.35;;;;;;;31.80;27.93;96553.31;5158254;27;20427;-65
2023/10/31 08:05:44;;;;;;;29.10;26.85;;;;;;;30.70;29.67;96542.25;5158148;27;20049;-63
2023/10/31 08:08:11;;;;;;;29.15;26.77;;;;;;;29.39;31.37;96534.09;5158181;27;20042;-64
2023/10/31 08:10:38;;;;;;;28.10;25.83;;;;;;;27.98;33.67;96531.81;5158007;27;20054;-65
2023/10/31 08:13:07;;;;;;;32.97;30.08;;;;;;;27.28;35.47;96531.25;5157946;27;20455;-64
2023/10/31 08:15:34;;;;;;;34.15;31.23;;;;;;;26.81;36.30;96523.53;5158048;27;20042;-64
2023/10/31 08:18:01;;;;;;;31.50;29.30;;;;;;;26.59;37.54;96517.75;5157951;27;20441;-64
2023/10/31 08:20:33;;;;;;;32.58;29.65;;;;;;;26.20;38.40;96510.97;5157938;27;20058;-64
2023/10/31 08:23:00;;;;;;;33.75;30.92;;;;;;;25.80;38.92;96510.53;5157921;27;20039;-64
2023/10/31 08:25:28;;;;;;;32.10;29.33;;;;;;;25.58;39.57;96507.28;5157734;27;20082;-62
2023/10/31 08:27:55;;;;;;;33.13;30.35;;;;;;;25.16;40.25;96506.06;5157743;27;20051;-65
2023/10/31 08:30:23;;;;;;;33.47;30.67;;;;;;;25.04;40.86;96493.91;5157653;27;20070;-63
2023/10/31 08:32:50;;;;;;;35.00;31.98;;;;;;;24.82;41.27;96488.78;5157676;27;20078;-63
2023/10/31 08:35:18;;;;;;;36.00;32.53;;;;;;;24.75;41.80;96493.06;5157634;27;20134;-64
2023/10/31 08:37:45;;;;;;;38.95;35.13;;;;;;;24.76;41.75;96492.06;5157538;27;20090;-62
2023/10/31 08:40:12;;;;;;;39.03;35.72;;;;;;;24.75;41.35;96482.38;5157279;27;20108;-64
2023/10/31 08:42:39;;;;;;;38.25;35.50;;;;;;;24.61;41.33;96481.00;5157358;27;20039;-64
2023/10/31 08:45:07;;;;;;;40.15;36.28;;;;;;;24.51;41.78;96480.22;5157222;27;20385;-64
2023/10/31 08:47:36;;;;;;;41.78;38.38;;;;;;;24.43;41.70;96472.94;5157230;27;20403;-64
2023/10/31 08:50:04;;;;;;;41.53;37.63;;;;;;;24.50;41.98;96468.69;5156061;27;20045;-63
2023/10/31 08:52:31;;;;;;;41.95;38.35;;;;;;;24.48;42.01;96454.63;5157481;27;20117;-64
2023/10/31 08:54:58;;;;;;;40.75;37.40;;;;;;;24.54;42.17;96458.53;5157241;27;20046;-64
2023/10/31 08:57:25;;;;;;;43.47;40.15;;;;;;;24.61;41.73;96457.81;5157137;27;20059;-62
2023/10/31 08:59:53;;;;;;;43.25;39.88;;;;;;;24.62;41.60;96455.94;5157112;27;20046;-63
2023/10/31 09:02:21;;;;;;;43.22;39.83;;;;;;;24.59;41.27;96451.75;5157162;27;20479;-62
2023/10/31 09:04:51;;;;;;;49.28;45.22;;;;;;;24.43;41.79;96449.72;5156976;27;20117;-62
2023/10/31 09:07:19;;;;;;;44.17;40.47;;;;;;;24.50;40.70;96451.81;5156969;27;20053;-62
2023/10/31 09:09:48;;;;;;;42.53;39.40;;;;;;;24.43;41.56;96439.03;5156907;27;20054;-63
2023/10/31 09:12:16;;;;;;;44.40;40.90;;;;;;;24.49;41.23;96437.59;5156802;27;20100;-63
2023/10/31 09:14:45;;;;;;;43.70;40.38;;;;;;;24.35;41.56;96431.75;5156756;27;20125;-63
2023/10/31 09:17:13;;;;;;;44.85;41.03;;;;;;;24.32;42.30;96423.22;5156826;27;20051;-63
2023/10/31 09:19:41;;;;;;;46.97;43.35;;;;;;;24.08;42.40;96428.03;5156678;27;20078;-63
2023/10/31 09:22:10;;;;;;;44.20;40.85;;;;;;;23.79;43.39;96425.47;5156699;27;20475;-63
2023/10/31 09:24:40;;;;;;;42.97;39.60;;;;;;;23.79;43.37;96422.78;5156616;27;20086;-63
2023/10/31 09:27:09;;;;;;;42.10;38.40;;;;;;;23.85;43.28;96415.06;5156614;27;20046;-64
2023/10/31 09:29:36;;;;;;;47.40;43.25;;;;;;;23.79;43.20;96414.78;5156535;27;20056;-62
2023/10/31 09:32:03;;;;;;;47.80;43.97;;;;;;;23.71;43.39;96405.69;5156478;27;20043;-62
2023/10/31 09:34:30;;;;;;;44.30;40.42;;;;;;;23.65;43.63;96402.72;5156475;27;20133;-63
2023/10/31 09:36:57;;;;;;;44.20;40.97;;;;;;;23.42;43.96;96403.91;5156476;27;20047;-62
2023/10/31 09:39:27;;;;;;;46.63;43.17;;;;;;;23.46;43.54;96402.66;5156092;27;20381;-64
2023/10/31 09:41:55;;;;;;;48.70;44.47;;;;;;;23.41;44.17;96399.56;5156308;27;20043;-62
2023/10/31 09:44:22;;;;;;;45.50;41.70;;;;;;;23.49;44.21;96396.19;5156117;27;20446;-63
2023/10/31 09:46:50;;;;;;;45.67;42.00;;;;;;;23.54;43.39;96391.22;5156062;27;20043;-62
2023/10/31 09:49:18;;;;;;;43.80;40.38;;;;;;;23.58;44.16;96389.97;5156004;27;20047;-64
2023/10/31 09:51:48;;;;;;;45.95;41.95;;;;;;;23.62;43.62;96389.69;5156029;27;20043;-62
2023/10/31 09:54:17;;;;;;;45.83;42.25;;;;;;;23.49;43.54;96385.50;5155867;27;20089;-63
2023/10/31 09:56:46;;;;;;;46.92;43.10;;;;;;;23.45;43.34;96378.78;5156003;27;20058;-62
2023/10/31 09:59:16;;;;;;;43.97;40.55;;;;;;;23.41;43.55;96374.69;5155877;27;20087;-62
2023/10/31 10:01:43;;;;;;;;;;;;;;;23.33;43.24;96376.22;5155890;27;20045;-63
2023/10/31 10:04:11;;;;;;;50.75;46.50;;;;;;;22.90;43.50;96373.00;5155879;27;19971;-63
2023/10/31 10:06:50;;;;;;;46.78;43.42;;;;;;;22.74;44.65;96365.56;5155623;27;20404;-63
2023/10/31 10:09:17;;;;;;;52.85;48.63;;;;;;;22.82;45.75;96359.56;5155781;27;20049;-63
2023/10/31 10:11:46;;;;;;;48.95;44.55;;;;;;;22.82;45.01;96347.06;5155601;27;20392;-63
2023/10/31 10:14:14;;;;;;;53.13;49.13;;;;;;;22.81;45.08;96350.72;5155733;27;20095;-62
2023/10/31 10:16:41;;;;;;;55.50;51.15;;;;;;;22.74;45.56;96335.41;5155564;27;20046;-63
2023/10/31 10:19:20;;;;;;;48.78;45.00;;;;;;;22.78;44.26;96340.31;5155547;27;20053;-63
2023/10/31 10:21:51;;;;;;;51.40;46.83;;;;;;;22.85;43.83;96338.78;5155554;27;20462;-62
2023/10/31 10:24:19;;;;;;;50.40;46.60;;;;;;;22.87;43.55;96325.31;5155299;27;20051;-62
2023/10/31 10:26:48;;;;;;;49.70;46.13;;;;;;;22.79;43.79;96326.00;5155198;27;20086;-63
2023/10/31 10:29:16;;;;;;;51.40;47.58;;;;;;;22.83;43.57;96313.25;5155369;27;20097;-63
2023/10/31 10:31:43;;;;;;;49.30;45.20;;;;;;;22.66;43.88;96315.63;5155168;27;20046;-63
2023/10/31 10:34:10;;;;;;;49.72;46.33;;;;;;;22.64;44.04;96316.75;5155417;27;20150;-62
2023/10/31 10:36:37;;;;;;;51.38;47.50;;;;;;;22.71;44.42;96318.72;5155143;27;20042;-63
2023/10/31 10:39:05;;;;;;;56.10;51.55;;;;;;;22.72;42.91;96314.22;5154897;27;20063;-64
2023/10/31 10:41:36;;;;;;;52.15;48.38;;;;;;;22.63;43.55;96315.09;5155124;27;20056;-63
2023/10/31 10:44:08;;;;;;;52.90;48.88;;;;;;;22.35;43.31;96310.38;5155132;27;20446;-63
2023/10/31 10:46:36;;;;;;;58.03;53.83;;;;;;;22.31;44.29;96303.66;5154962;27;20047;-64
2023/10/31 10:49:06;;;;;;;63.38;58.53;;;;;;;22.35;45.15;96310.38;5154918;27;20099;-63
2023/10/31 10:51:50;;;;;;;58.67;54.63;;;;;;;22.43;44.25;96312.38;5154919;27;20070;-63
2023/10/31 10:54:24;;;;;;;59.38;54.97;;;;;;;22.44;43.92;96309.56;5154989;27;20053;-62
2023/10/31 10:56:56;;;;;;;56.83;52.75;;;;;;;22.50;44.13;96300.16;5154855;27;20055;-62
2023/10/31 10:59:36;;;;;;;57.75;53.72;;;;;;;22.49;43.92;96298.50;5154763;27;20047;-63
2023/10/31 11:02:07;;;;;;;56.10;52.37;;;;;;;22.53;43.56;96289.22;5154841;27;20082;-62
2023/10/31 11:04:35;;;;;;;55.08;51.25;;;;;;;22.58;43.62;96292.34;5154870;27;20609;-62
2023/10/31 11:07:03;;;;;;;52.63;49.05;;;;;;;22.65;42.80;96279.31;5154787;27;20042;-62
2023/10/31 11:09:32;;;;;;;54.35;50.30;;;;;;;22.62;42.76;96284.91;5154667;27;20073;-62
2023/10/31 11:12:00;;;;;;;56.78;52.72;;;;;;;22.54;43.67;96269.59;5154714;27;20046;-63
2023/10/31 11:14:30;;;;;;;53.13;49.22;;;;;;;22.55;43.09;96265.09;5153934;27;20047;-63